Time;durP1;ratioP1;P1;durP2;ratioP2;P2;SDS_P1;SDS_P2;PMS_P1;PMS_P2;Temp;Humidity;BMP_temperature;BMP_pressure;BME280_temperature;BME280_humidity;BME280_pressure;Samples;Min_cycle;Max_cycle;Signal;HPM_P1;HPM_P2
2021/01/10 00:00:58;;;;;;;4.72;3.28;;;18.20;52.30;;;;;;10532912;28;20040;-57
2021/01/10 00:06:00;;;;;;;8.15;3.65;;;18.20;52.30;;;;;;10535389;28;20495;-59
2021/01/10 00:11:02;;;;;;;7.75;3.17;;;18.20;52.20;;;;;;10530786;28;20487;-58
2021/01/10 00:16:03;;;;;;;9.30;3.47;;;18.10;52.10;;;;;;10532224;28;20510;-58
2021/01/10 00:21:06;;;;;;;5.20;3.33;;;18.10;52.10;;;;;;10537233;28;20076;-59
2021/01/10 00:26:07;;;;;;;4.70;3.10;;;18.10;52.10;;;;;;10529333;28;20083;-59
2021/01/10 00:31:09;;;;;;;8.55;3.55;;;18.10;52.00;;;;;;10537230;28;20087;-54
2021/01/10 00:36:11;;;;;;;6.05;2.85;;;18.10;51.90;;;;;;10546466;28;20472;-55
2021/01/10 00:41:12;;;;;;;4.80;2.47;;;18.10;51.90;;;;;;10538914;28;20125;-59
2021/01/10 00:46:14;;;;;;;6.25;3.30;;;18.10;51.90;;;;;;10541929;28;20456;-59
2021/01/10 00:51:17;;;;;;;5.15;2.80;;;18.10;51.80;;;;;;10547578;28;20052;-56
2021/01/10 00:56:18;;;;;;;4.70;2.42;;;18.10;51.80;;;;;;10540357;28;20101;-58
2021/01/10 01:01:20;;;;;;;4.72;2.85;;;18.10;51.80;;;;;;10540674;28;20140;-58
2021/01/10 01:06:22;;;;;;;5.23;2.50;;;18.00;51.70;;;;;;10544926;28;20059;-58
2021/01/10 01:11:27;;;;;;;6.50;2.90;;;18.10;51.70;;;;;;10539203;28;21314;-59
2021/01/10 01:16:29;;;;;;;4.70;2.88;;;18.00;51.60;;;;;;10554169;28;20052;-58
2021/01/10 01:21:31;;;;;;;3.42;2.42;;;18.00;51.60;;;;;;10540319;28;20090;-58
2021/01/10 01:26:33;;;;;;;7.43;3.30;;;18.00;51.50;;;;;;10541065;28;20082;-59
2021/01/10 01:31:34;;;;;;;5.28;2.70;;;18.00;51.50;;;;;;10540639;28;20146;-58
2021/01/10 01:36:37;;;;;;;3.97;2.42;;;18.00;51.40;;;;;;10541730;28;20040;-58
2021/01/10 01:41:39;;;;;;;3.58;2.22;;;18.00;51.40;;;;;;10537046;28;20062;-59
2021/01/10 01:46:40;;;;;;;3.90;2.20;;;17.90;51.30;;;;;;10535535;28;20068;-57
2021/01/10 01:51:43;;;;;;;5.75;3.10;;;17.90;51.30;;;;;;10538641;28;20069;-58
2021/01/10 01:56:44;;;;;;;4.22;2.90;;;17.90;51.30;;;;;;10535191;28;20044;-59
2021/01/10 02:01:46;;;;;;;4.28;2.67;;;17.90;51.20;;;;;;10541415;28;20051;-58
2021/01/10 02:06:55;;;;;;;3.67;2.35;;;17.90;51.20;;;;;;10534297;28;20117;-58
2021/01/10 02:12:01;;;;;;;3.38;1.90;;;17.90;51.10;;;;;;10536579;28;20090;-57
2021/01/10 02:17:03;;;;;;;3.28;2.17;;;17.90;51.10;;;;;;10544357;28;20071;-59
2021/01/10 02:22:06;;;;;;;6.77;2.10;;;17.90;51.10;;;;;;10549311;28;20059;-59
2021/01/10 02:27:09;;;;;;;3.38;1.80;;;17.90;51.10;;;;;;10538225;28;20149;-58
2021/01/10 02:32:11;;;;;;;2.53;1.70;;;17.90;51.10;;;;;;10545364;28;20051;-59
2021/01/10 02:37:32;;;;;;;2.45;1.52;;;17.90;51.10;;;;;;10542490;28;20086;-58
2021/01/10 02:42:40;;;;;;;3.17;1.70;;;17.80;51.00;;;;;;10541805;28;20067;-60
2021/01/10 02:47:42;;;;;;;3.70;2.10;;;17.80;51.00;;;;;;10543983;28;20051;-57
2021/01/10 02:52:44;;;;;;;2.58;1.52;;;17.80;51.00;;;;;;10538823;28;20087;-59
2021/01/10 02:57:51;;;;;;;3.95;1.85;;;17.80;51.00;;;;;;10536144;28;20480;-59
2021/01/10 03:02:54;;;;;;;3.30;1.88;;;17.80;51.00;;;;;;10537246;28;20640;-59
2021/01/10 03:07:56;;;;;;;4.53;1.90;;;17.80;50.90;;;;;;10541935;28;20052;-57
2021/01/10 03:12:58;;;;;;;4.78;1.77;;;17.80;50.90;;;;;;10537588;28;20109;-59
2021/01/10 03:18:16;;;;;;;2.45;1.30;;;17.80;50.90;;;;;;10535039;28;20426;-59
2021/01/10 03:23:18;;;;;;;3.83;2.08;;;17.80;50.80;;;;;;10537553;28;20052;-59
2021/01/10 03:28:20;;;;;;;3.20;1.53;;;17.80;50.80;;;;;;10536291;28;20040;-59
2021/01/10 03:33:21;;;;;;;3.55;1.88;;;17.80;50.80;;;;;;10533455;28;20043;-57
2021/01/10 03:38:22;;;;;;;3.85;1.50;;;17.70;50.80;;;;;;10542280;28;20192;-59
2021/01/10 03:43:24;;;;;;;2.88;1.40;;;17.70;50.70;;;;;;10538025;28;20071;-58
2021/01/10 03:48:26;;;;;;;2.58;1.40;;;17.70;50.60;;;;;;10539524;28;20472;-59
2021/01/10 03:53:27;;;;;;;2.47;1.45;;;17.70;50.60;;;;;;10534794;28;20054;-56
2021/01/10 03:58:29;;;;;;;1.77;1.20;;;17.70;50.60;;;;;;10531501;28;20470;-60
2021/01/10 04:03:30;;;;;;;3.33;1.60;;;17.70;50.60;;;;;;10536779;28;20048;-59
2021/01/10 04:08:31;;;;;;;3.88;1.50;;;17.70;50.50;;;;;;10534607;28;20044;-59
2021/01/10 04:13:34;;;;;;;2.30;1.38;;;17.70;50.50;;;;;;10533035;28;20052;-58
2021/01/10 04:18:35;;;;;;;2.25;1.23;;;17.60;50.50;;;;;;10540743;28;20123;-56
2021/01/10 04:23:36;;;;;;;2.22;1.10;;;17.60;50.50;;;;;;10533950;28;20047;-59
2021/01/10 04:28:38;;;;;;;1.40;0.80;;;17.60;50.40;;;;;;10544346;28;20089;-58
2021/01/10 04:33:39;;;;;;;2.78;1.10;;;17.60;50.40;;;;;;10542225;28;20047;-59
2021/01/10 04:38:41;;;;;;;2.97;1.10;;;17.60;50.30;;;;;;10539039;28;20127;-56
2021/01/10 04:43:43;;;;;;;2.05;1.05;;;17.60;50.90;;;;;;10533133;28;20175;-56
2021/01/10 04:48:45;;;;;;;4.68;1.00;;;17.60;50.30;;;;;;10532488;28;20064;-56
2021/01/10 04:53:50;;;;;;;4.17;1.00;;;17.60;50.30;;;;;;10532588;28;20036;-58
2021/01/10 04:58:55;;;;;;;2.97;1.20;;;17.60;50.30;;;;;;10529664;28;20044;-58
2021/01/10 05:03:56;;;;;;;2.33;1.00;;;17.60;50.20;;;;;;10532427;28;20483;-58
2021/01/10 05:08:57;;;;;;;2.50;1.30;;;17.60;50.20;;;;;;10540067;28;20056;-59
2021/01/10 05:13:59;;;;;;;3.40;1.05;;;17.50;50.10;;;;;;10532544;28;20112;-58
2021/01/10 05:19:02;;;;;;;3.15;1.08;;;17.50;50.00;;;;;;10532817;28;20488;-59
2021/01/10 05:24:04;;;;;;;;;;;17.50;50.00;;;;;;10536271;28;20044;-58
2021/01/10 05:29:07;;;;;;;1.65;0.98;;;17.50;50.00;;;;;;10541535;28;19920;-59
2021/01/10 05:34:08;;;;;;;2.05;0.98;;;17.50;50.00;;;;;;10541953;28;20173;-55
2021/01/10 05:39:18;;;;;;;4.33;1.30;;;17.50;50.00;;;;;;10553480;28;20499;-58
2021/01/10 05:44:20;;;;;;;1.42;1.00;;;17.50;50.00;;;;;;10542659;28;20048;-59
2021/01/10 05:49:22;;;;;;;3.50;1.38;;;17.50;50.00;;;;;;10544118;28;20138;-58
2021/01/10 05:54:37;;;;;;;1.70;0.80;;;17.50;50.00;;;;;;10542524;28;20052;-58
2021/01/10 05:59:47;;;;;;;2.67;1.00;;;17.50;49.90;;;;;;10537998;28;20088;-58
2021/01/10 06:04:48;;;;;;;0.80;0.60;;;17.40;49.80;;;;;;10546111;28;20096;-58
2021/01/10 06:09:49;;;;;;;1.55;0.90;;;17.40;49.80;;;;;;10538480;28;20139;-59
2021/01/10 06:15:08;;;;;;;1.40;0.80;;;17.40;49.70;;;;;;10546549;28;20044;-59
2021/01/10 06:20:21;;;;;;;2.17;1.10;;;17.40;49.70;;;;;;10538450;28;20067;-59
2021/01/10 06:25:24;;;;;;;1.92;0.95;;;17.40;49.70;;;;;;10541568;28;20091;-58
2021/01/10 06:30:28;;;;;;;;;;;17.40;49.60;;;;;;10536244;28;20058;-58
2021/01/10 06:35:35;;;;;;;1.80;0.68;;;17.40;49.60;;;;;;10537387;28;19920;-60
2021/01/10 06:40:38;;;;;;;1.40;0.93;;;17.40;49.60;;;;;;10539512;28;20135;-59
2021/01/10 06:45:41;;;;;;;3.53;0.90;;;17.40;49.60;;;;;;10536116;28;20059;-59
2021/01/10 06:50:45;;;;;;;;;;;17.40;49.50;;;;;;10541604;28;20394;-58
2021/01/10 06:55:46;;;;;;;1.15;0.50;;;17.40;49.50;;;;;;10545621;28;19928;-58
2021/01/10 07:00:56;;;;;;;1.80;0.82;;;17.40;49.40;;;;;;10539594;28;20138;-57
2021/01/10 07:06:08;;;;;;;3.83;1.25;;;17.40;49.40;;;;;;10536455;28;20051;-57
2021/01/10 07:11:34;;;;;;;2.33;0.97;;;17.40;49.40;;;;;;10532633;28;20655;-56
2021/01/10 07:16:37;;;;;;;2.88;0.95;;;17.40;49.30;;;;;;10531072;28;20663;-59
2021/01/10 07:21:40;;;;;;;1.95;0.90;;;17.40;49.30;;;;;;10536144;28;20055;-58
2021/01/10 07:26:42;;;;;;;5.20;1.17;;;17.40;49.30;;;;;;10535171;28;20429;-58
2021/01/10 07:31:58;;;;;;;2.00;1.15;;;17.40;49.30;;;;;;10533405;28;20056;-57
2021/01/10 07:37:01;;;;;;;3.08;0.85;;;17.40;49.20;;;;;;10533114;28;20069;-58
2021/01/10 07:42:16;;;;;;;2.55;0.98;;;17.50;49.30;;;;;;10534391;28;20070;-58
2021/01/10 07:47:19;;;;;;;1.90;0.90;;;17.40;49.30;;;;;;10530299;28;20048;-59
2021/01/10 07:52:55;;;;;;;1.02;0.77;;;17.50;49.40;;;;;;10533784;28;20517;-58
2021/01/10 07:58:16;;;;;;;2.58;1.30;;;17.50;49.40;;;;;;10532469;28;20135;-54
2021/01/10 08:03:23;;;;;;;1.92;0.93;;;17.50;49.40;;;;;;10533057;28;20040;-59
2021/01/10 08:08:43;;;;;;;1.13;1.00;;;17.50;49.50;;;;;;10520913;28;20044;-59
2021/01/10 08:13:44;;;;;;;2.30;1.25;;;17.50;49.40;;;;;;10533347;28;20050;-59
2021/01/10 08:18:47;;;;;;;3.90;1.40;;;17.50;49.40;;;;;;10527970;28;20123;-53
2021/01/10 08:23:54;;;;;;;2.60;1.40;;;17.50;49.40;;;;;;10544725;28;20047;-59
2021/01/10 08:28:57;;;;;;;3.22;1.45;;;17.50;49.40;;;;;;10528678;28;20480;-57
2021/01/10 08:34:00;;;;;;;4.55;1.58;;;17.60;49.50;;;;;;10545794;28;20076;-57
2021/01/10 08:39:05;;;;;;;3.38;1.88;;;17.60;49.50;;;;;;10531402;28;20487;-55
2021/01/10 08:44:11;;;;;;;4.05;1.63;;;17.60;49.40;;;;;;10530355;28;20082;-55
2021/01/10 08:49:17;;;;;;;2.90;1.73;;;17.60;49.40;;;;;;10530294;28;20116;-57
2021/01/10 08:54:19;;;;;;;3.30;1.98;;;17.60;49.30;;;;;;10535118;28;20080;-56
2021/01/10 08:59:22;;;;;;;1.95;1.23;;;17.60;49.30;;;;;;10542508;28;20055;-58
2021/01/10 09:04:24;;;;;;;3.20;1.80;;;17.60;49.20;;;;;;10534858;28;20051;-57
2021/01/10 09:09:36;;;;;;;2.13;1.40;;;17.60;49.20;;;;;;10535135;28;20052;-56
2021/01/10 09:14:42;;;;;;;2.72;1.65;;;17.60;49.20;;;;;;10537239;28;20139;-58
2021/01/10 09:19:49;;;;;;;3.50;2.22;;;17.70;49.20;;;;;;10536546;28;20364;-58
2021/01/10 09:24:50;;;;;;;2.83;1.98;;;17.70;49.20;;;;;;10538330;28;20052;-57
2021/01/10 09:30:03;;;;;;;3.13;1.70;;;17.70;49.10;;;;;;10538433;28;20044;-57
2021/01/10 09:35:06;;;;;;;;;;;17.70;49.10;;;;;;10539939;28;20052;-57
2021/01/10 09:40:09;;;;;;;2.67;1.30;;;17.70;49.10;;;;;;10541485;28;19958;-55
2021/01/10 09:45:13;;;;;;;3.50;1.50;;;17.70;49.00;;;;;;10537216;28;20048;-58
2021/01/10 09:50:16;;;;;;;2.83;1.70;;;17.70;48.90;;;;;;10540304;28;20052;-56
2021/01/10 09:55:18;;;;;;;3.60;1.55;;;17.70;49.00;;;;;;10531632;28;20040;-53
2021/01/10 10:00:20;;;;;;;4.27;2.23;;;17.70;49.10;;;;;;10536661;28;20051;-58
2021/01/10 10:05:22;;;;;;;14.80;4.65;;;17.80;49.10;;;;;;10532941;28;20539;-52
2021/01/10 10:10:25;;;;;;;17.98;6.03;;;17.80;49.20;;;;;;10520890;28;20059;-53
2021/01/10 10:15:37;;;;;;;18.40;6.13;;;17.80;49.30;;;;;;10519278;28;20517;-57
2021/01/10 10:20:39;;;;;;;27.38;10.75;;;17.80;49.40;;;;;;10520138;28;20055;-58
2021/01/10 10:25:41;;;;;;;45.17;13.68;;;17.80;49.50;;;;;;10518785;28;20048;-58
2021/01/10 10:30:42;;;;;;;37.47;12.60;;;17.90;49.70;;;;;;10519100;28;20091;-56
2021/01/10 10:35:45;;;;;;;39.73;13.53;;;17.90;49.90;;;;;;10517350;28;20048;-57
2021/01/10 10:40:46;;;;;;;27.60;9.77;;;17.90;50.00;;;;;;10516788;28;20079;-54
2021/01/10 10:45:47;;;;;;;28.75;9.85;;;17.90;50.00;;;;;;10517492;28;20152;-51
2021/01/10 10:50:50;;;;;;;22.67;8.68;;;17.90;50.00;;;;;;10514216;28;20410;-60
2021/01/10 10:55:52;;;;;;;22.25;7.30;;;17.90;50.00;;;;;;10514773;28;20142;-54
2021/01/10 11:00:53;;;;;;;14.85;5.78;;;18.00;50.00;;;;;;10515569;28;20048;-58
2021/01/10 11:05:55;;;;;;;13.65;5.70;;;18.00;49.90;;;;;;10517094;28;20056;-58
2021/01/10 11:10:56;;;;;;;11.98;4.88;;;18.00;49.80;;;;;;10516187;28;20460;-51
2021/01/10 11:15:58;;;;;;;11.52;3.95;;;18.00;49.80;;;;;;10513935;28;20052;-58
2021/01/10 11:21:00;;;;;;;6.35;3.08;;;18.00;49.80;;;;;;10515349;28;20079;-59
2021/01/10 11:26:04;;;;;;;6.05;3.20;;;18.00;49.60;;;;;;10517865;28;20113;-58
2021/01/10 11:31:05;;;;;;;6.13;3.13;;;18.10;49.50;;;;;;10515783;28;20062;-59
2021/01/10 11:36:08;;;;;;;5.57;3.00;;;18.00;49.20;;;;;;10510859;28;20096;-59
2021/01/10 11:41:11;;;;;;;4.57;2.58;;;18.10;49.20;;;;;;10512583;28;20422;-59
2021/01/10 11:46:13;;;;;;;7.40;2.85;;;18.10;49.10;;;;;;10513614;28;20419;-56
2021/01/10 11:51:17;;;;;;;7.13;3.97;;;18.00;49.00;;;;;;10514275;28;20084;-58
2021/01/10 11:56:18;;;;;;;8.70;5.25;;;18.00;48.90;;;;;;10511385;28;20072;-59
2021/01/10 12:01:20;;;;;;;11.85;5.32;;;17.90;48.90;;;;;;10512858;28;20100;-59
2021/01/10 12:06:22;;;;;;;9.23;4.78;;;17.90;48.80;;;;;;10510867;28;20062;-58
2021/01/10 12:11:24;;;;;;;12.18;4.78;;;17.90;48.80;;;;;;10514174;28;20056;-55
2021/01/10 12:16:25;;;;;;;11.57;5.53;;;17.90;48.80;;;;;;10512769;28;20047;-55
2021/01/10 12:21:27;;;;;;;6.55;4.10;;;17.90;48.70;;;;;;10512931;28;20430;-58
2021/01/10 12:26:29;;;;;;;6.88;3.75;;;18.00;48.80;;;;;;10512887;28;20044;-57
2021/01/10 12:31:30;;;;;;;6.80;4.50;;;18.00;48.90;;;;;;10522344;28;20537;-57
2021/01/10 12:36:32;;;;;;;12.23;3.83;;;18.00;49.00;;;;;;10528092;28;20130;-56
2021/01/10 12:41:33;;;;;;;8.63;2.75;;;18.00;49.10;;;;;;10526867;28;20075;-58
2021/01/10 12:46:35;;;;;;;13.43;3.58;;;18.00;49.20;;;;;;10526609;28;20052;-56
2021/01/10 12:51:40;;;;;;;13.57;4.15;;;18.00;49.30;;;;;;10527203;28;20083;-57
2021/01/10 12:56:41;;;;;;;23.52;9.05;;;18.00;49.40;;;;;;10526321;28;20495;-59
2021/01/10 13:01:42;;;;;;;32.28;12.90;;;18.00;49.50;;;;;;10528059;28;20055;-58
2021/01/10 13:06:46;;;;;;;42.28;14.40;;;18.00;49.60;;;;;;10528615;28;20052;-56
2021/01/10 13:11:47;;;;;;;37.78;13.75;;;18.00;49.70;;;;;;10525521;28;20101;-56
2021/01/10 13:16:48;;;;;;;36.83;12.77;;;18.10;49.80;;;;;;10527457;28;20238;-56
2021/01/10 13:21:50;;;;;;;30.17;10.48;;;18.10;49.70;;;;;;10527707;28;20066;-56
2021/01/10 13:26:53;;;;;;;23.92;9.45;;;18.20;49.70;;;;;;10527363;28;20086;-59
2021/01/10 13:31:54;;;;;;;30.50;8.07;;;18.20;49.70;;;;;;10524698;28;20050;-59
2021/01/10 13:37:00;;;;;;;18.05;7.47;;;18.20;49.70;;;;;;10527125;28;20044;-57
2021/01/10 13:42:02;;;;;;;17.92;7.03;;;18.20;49.80;;;;;;10527046;28;20056;-59
2021/01/10 13:47:04;;;;;;;20.88;7.80;;;18.20;49.80;;;;;;10526922;28;20092;-51
2021/01/10 13:52:06;;;;;;;15.73;8.00;;;18.20;49.80;;;;;;10525293;28;20078;-57
2021/01/10 13:57:08;;;;;;;14.77;6.60;;;18.20;49.80;;;;;;10525993;28;20114;-58
2021/01/10 14:02:09;;;;;;;10.90;5.27;;;18.20;49.90;;;;;;10525610;28;20381;-59
2021/01/10 14:07:12;;;;;;;9.40;5.60;;;18.20;49.90;;;;;;10525913;28;20040;-59
2021/01/10 14:12:13;;;;;;;8.05;4.53;;;18.20;50.00;;;;;;10525241;28;20929;-58
2021/01/10 14:17:14;;;;;;;14.32;5.63;;;18.20;50.00;;;;;;10525513;28;20050;-57
2021/01/10 14:22:16;;;;;;;11.90;5.88;;;18.20;50.10;;;;;;10524124;28;20102;-59
2021/01/10 14:27:19;;;;;;;9.63;4.57;;;18.20;50.10;;;;;;10521819;28;20077;-58
2021/01/10 14:32:21;;;;;;;11.52;5.72;;;18.20;50.10;;;;;;10525259;28;20070;-51
2021/01/10 14:37:23;;;;;;;9.37;4.47;;;18.20;50.10;;;;;;10525021;28;20159;-58
2021/01/10 14:42:24;;;;;;;15.80;6.10;;;18.20;50.30;;;;;;10522681;28;20762;-57
2021/01/10 14:47:26;;;;;;;11.48;5.20;;;18.20;50.20;;;;;;10524749;28;20684;-55
2021/01/10 14:52:28;;;;;;;11.98;5.22;;;18.20;50.30;;;;;;10523378;28;20048;-60
2021/01/10 14:57:32;;;;;;;10.23;4.65;;;18.20;50.20;;;;;;10523499;28;20139;-57
2021/01/10 15:02:33;;;;;;;11.95;4.60;;;18.20;50.20;;;;;;10522423;28;20418;-55
2021/01/10 15:07:35;;;;;;;10.03;3.67;;;18.20;50.20;;;;;;10521582;28;20054;-57
2021/01/10 15:12:37;;;;;;;7.63;3.80;;;18.20;50.30;;;;;;10520171;28;20460;-57
2021/01/10 15:17:38;;;;;;;8.38;3.88;;;18.20;50.40;;;;;;10523486;28;20048;-57
2021/01/10 15:22:40;;;;;;;4.50;2.80;;;18.20;50.40;;;;;;10518970;28;20048;-51
2021/01/10 15:27:41;;;;;;;8.13;3.17;;;18.20;50.40;;;;;;10520713;28;20497;-51
2021/01/10 15:32:43;;;;;;;4.35;2.50;;;18.20;50.40;;;;;;10521036;28;20044;-55
2021/01/10 15:37:45;;;;;;;5.72;2.83;;;18.30;50.50;;;;;;10751516;22;20059;-56
2021/01/10 15:42:46;;;;;;;5.15;2.38;;;18.30;50.60;;;;;;10500452;28;20040;-57
2021/01/10 15:47:48;;;;;;;7.95;2.67;;;18.30;50.50;;;;;;10500409;28;20052;-57
2021/01/10 15:52:50;;;;;;;3.47;2.00;;;18.30;50.50;;;;;;10502904;28;20050;-52
2021/01/10 15:57:51;;;;;;;7.05;3.53;;;18.30;50.50;;;;;;10506507;28;20054;-52
2021/01/10 16:02:52;;;;;;;5.28;2.58;;;18.30;50.50;;;;;;10505740;28;20054;-55
2021/01/10 16:07:55;;;;;;;4.88;2.58;;;18.30;50.50;;;;;;10504190;28;20058;-57
2021/01/10 16:12:56;;;;;;;4.85;2.80;;;18.30;50.50;;;;;;10503327;28;20135;-55
2021/01/10 16:17:57;;;;;;;3.38;1.98;;;18.30;50.50;;;;;;10504454;28;20151;-57
2021/01/10 16:22:59;;;;;;;3.33;1.80;;;18.30;50.50;;;;;;10500678;28;20435;-57
2021/01/10 16:28:00;;;;;;;5.30;2.22;;;18.30;50.50;;;;;;10505392;28;20136;-56
2021/01/10 16:33:02;;;;;;;2.67;1.70;;;18.30;50.60;;;;;;10504299;28;20105;-56
2021/01/10 16:38:05;;;;;;;4.72;2.28;;;18.40;50.60;;;;;;10505560;28;20054;-54
2021/01/10 16:43:09;;;;;;;4.63;2.17;;;18.40;50.60;;;;;;10501408;28;20147;-57
2021/01/10 16:48:11;;;;;;;3.28;1.80;;;18.40;50.60;;;;;;10505354;28;20056;-54
2021/01/10 16:53:13;;;;;;;4.13;2.55;;;18.40;50.50;;;;;;10500960;28;20825;-54
2021/01/10 16:58:15;;;;;;;3.78;2.65;;;18.40;50.50;;;;;;10504960;28;20048;-56
2021/01/10 17:03:16;;;;;;;2.50;1.73;;;18.40;50.50;;;;;;10500804;28;20082;-55
2021/01/10 17:08:18;;;;;;;3.58;1.95;;;18.40;50.50;;;;;;10502989;28;20052;-52
2021/01/10 17:13:19;;;;;;;4.18;2.22;;;18.40;50.50;;;;;;10501393;28;20054;-56
2021/01/10 17:18:21;;;;;;;10.20;5.55;;;18.40;50.50;;;;;;10505203;28;20133;-55
2021/01/10 17:23:23;;;;;;;5.00;2.83;;;18.40;50.40;;;;;;10509153;28;20134;-57
2021/01/10 17:28:24;;;;;;;3.72;2.33;;;18.40;50.40;;;;;;10506455;28;20045;-57
2021/01/10 17:33:29;;;;;;;3.65;2.08;;;18.40;50.50;;;;;;10504611;28;20054;-56
2021/01/10 17:38:31;;;;;;;5.68;2.53;;;18.40;50.50;;;;;;10507934;28;20076;-53
2021/01/10 17:43:33;;;;;;;4.03;1.90;;;18.40;50.60;;;;;;10506375;28;20052;-52
2021/01/10 17:48:37;;;;;;;2.40;1.60;;;18.40;50.60;;;;;;10507785;28;20056;-55
2021/01/10 17:53:40;;;;;;;5.72;1.60;;;18.50;50.70;;;;;;10507671;28;20542;-56
2021/01/10 17:58:41;;;;;;;3.67;1.83;;;18.50;50.70;;;;;;10503462;28;20048;-50
2021/01/10 18:03:42;;;;;;;2.50;1.65;;;18.50;50.70;;;;;;10509410;28;20093;-60
2021/01/10 18:08:45;;;;;;;4.10;1.33;;;18.50;50.70;;;;;;10510646;28;20048;-59
2021/01/10 18:13:49;;;;;;;2.28;1.60;;;18.50;50.70;;;;;;10509854;28;20051;-59
2021/01/10 18:18:50;;;;;;;3.78;1.80;;;18.50;50.70;;;;;;10511609;28;20077;-58
2021/01/10 18:23:52;;;;;;;5.20;3.00;;;18.50;50.60;;;;;;10508280;28;20054;-59
2021/01/10 18:28:54;;;;;;;6.15;3.22;;;18.50;50.60;;;;;;10505656;28;20140;-52
2021/01/10 18:33:55;;;;;;;6.45;3.70;;;18.50;50.50;;;;;;10504970;28;20147;-55
2021/01/10 18:38:58;;;;;;;8.35;5.05;;;18.40;50.50;;;;;;10507172;28;20560;-59
2021/01/10 18:43:59;;;;;;;11.68;6.43;;;18.40;50.50;;;;;;10510235;28;20416;-56
2021/01/10 18:49:00;;;;;;;14.90;6.72;;;18.40;50.50;;;;;;10505162;28;20048;-57
2021/01/10 18:54:03;;;;;;;16.17;7.57;;;18.40;50.50;;;;;;10506978;28;20170;-57
2021/01/10 18:59:05;;;;;;;12.18;6.93;;;18.40;50.50;;;;;;10508598;28;20559;-61
2021/01/10 19:04:06;;;;;;;14.77;7.53;;;18.40;50.50;;;;;;10507765;28;20553;-57
2021/01/10 19:09:08;;;;;;;14.40;7.63;;;18.40;50.50;;;;;;10507354;28;20059;-57
2021/01/10 19:14:09;;;;;;;17.60;8.75;;;18.40;50.60;;;;;;10506984;28;20048;-56
2021/01/10 19:19:11;;;;;;;18.65;10.15;;;18.40;50.60;;;;;;10506680;28;20075;-59
2021/01/10 19:24:13;;;;;;;14.45;7.78;;;18.40;50.60;;;;;;10505023;28;20050;-59
2021/01/10 19:29:15;;;;;;;13.30;5.85;;;18.40;50.60;;;;;;10507113;28;20076;-59
2021/01/10 19:34:16;;;;;;;9.88;5.80;;;18.40;50.70;;;;;;10503687;28;20476;-59
2021/01/10 19:39:20;;;;;;;7.90;4.63;;;18.40;50.70;;;;;;10499868;28;20051;-57
2021/01/10 19:44:21;;;;;;;5.72;3.80;;;18.40;50.80;;;;;;10506178;28;20531;-57
2021/01/10 19:49:22;;;;;;;6.47;3.65;;;18.40;50.90;;;;;;10504778;28;20076;-59
2021/01/10 19:54:25;;;;;;;6.70;2.90;;;18.50;51.00;;;;;;10509511;28;20057;-58
2021/01/10 19:59:27;;;;;;;;;;;18.50;51.10;;;;;;10507415;28;20396;-55
2021/01/10 20:04:29;;;;;;;6.15;2.78;;;18.50;51.10;;;;;;10505287;28;20248;-51
2021/01/10 20:09:31;;;;;;;4.90;2.97;;;18.50;51.20;;;;;;10502614;28;20056;-61
2021/01/10 20:14:32;;;;;;;7.30;4.43;;;18.50;51.20;;;;;;10498855;28;20139;-59
2021/01/10 20:19:45;;;;;;;3.97;2.72;;;18.50;51.20;;;;;;10502083;28;20448;-57
2021/01/10 20:24:47;;;;;;;;;;;18.50;51.30;;;;;;10505013;28;20093;-57
2021/01/10 20:29:48;;;;;;;6.88;2.83;;;18.50;51.20;;;;;;10503635;28;19935;-59
2021/01/10 20:34:49;;;;;;;7.35;2.70;;;18.50;51.20;;;;;;10500716;28;20061;-59
2021/01/10 20:39:52;;;;;;;5.82;3.10;;;18.50;51.20;;;;;;10507884;28;20040;-59
2021/01/10 20:44:54;;;;;;;6.65;2.80;;;18.50;51.20;;;;;;10501762;28;20056;-59
2021/01/10 20:49:55;;;;;;;6.88;3.03;;;18.50;51.20;;;;;;10504951;28;20054;-59
2021/01/10 20:54:57;;;;;;;7.95;2.45;;;18.50;51.10;;;;;;10506105;28;20056;-56
2021/01/10 20:59:58;;;;;;;6.47;2.70;;;18.50;51.60;;;;;;10515515;28;20044;-60
2021/01/10 21:04:59;;;;;;;7.32;2.70;;;18.50;51.00;;;;;;10511202;28;20047;-59
2021/01/10 21:10:02;;;;;;;6.50;2.63;;;18.50;51.00;;;;;;10513638;28;20110;-59
2021/01/10 21:15:04;;;;;;;5.65;2.65;;;18.50;51.00;;;;;;10512261;28;20488;-59
2021/01/10 21:20:07;;;;;;;10.68;4.45;;;18.50;50.90;;;;;;10509072;28;20060;-59
2021/01/10 21:25:09;;;;;;;5.57;2.75;;;18.50;50.90;;;;;;10511101;28;20092;-59
2021/01/10 21:30:11;;;;;;;;;;;18.50;50.80;;;;;;10514238;28;20159;-51
2021/01/10 21:35:12;;;;;;;8.82;3.55;;;18.50;50.80;;;;;;10512626;28;20015;-58
2021/01/10 21:40:15;;;;;;;7.82;3.70;;;18.50;50.80;;;;;;10508696;28;20060;-60
2021/01/10 21:45:16;;;;;;;6.18;3.75;;;18.50;50.70;;;;;;10511644;28;20041;-59
2021/01/10 21:50:18;;;;;;;7.30;3.10;;;18.50;50.60;;;;;;10509207;28;20514;-59
2021/01/10 21:55:20;;;;;;;6.10;3.20;;;18.50;50.60;;;;;;10513645;28;20099;-59
2021/01/10 22:00:22;;;;;;;5.45;3.28;;;18.50;50.60;;;;;;10515194;28;20044;-59
2021/01/10 22:05:23;;;;;;;6.30;3.50;;;18.50;50.60;;;;;;10511153;28;20538;-57
2021/01/10 22:10:25;;;;;;;8.55;3.95;;;18.50;50.60;;;;;;10514472;28;20048;-60
2021/01/10 22:15:27;;;;;;;13.85;7.50;;;18.50;50.50;;;;;;10510856;28;20089;-59
2021/01/10 22:20:28;;;;;;;9.57;4.93;;;18.50;50.50;;;;;;10512283;28;20047;-59
2021/01/10 22:25:30;;;;;;;11.25;5.78;;;18.50;50.40;;;;;;10514274;28;20472;-54
2021/01/10 22:30:32;;;;;;;9.10;5.60;;;18.40;50.30;;;;;;10510059;28;20052;-60
2021/01/10 22:35:33;;;;;;;10.50;5.85;;;18.40;50.30;;;;;;10511997;28;20086;-60
2021/01/10 22:40:35;;;;;;;8.75;5.28;;;18.40;50.20;;;;;;10509755;28;20138;-60
2021/01/10 22:45:37;;;;;;;9.43;5.65;;;18.40;50.20;;;;;;10492398;28;20095;-59
2021/01/10 22:50:38;;;;;;;7.25;4.68;;;18.40;50.20;;;;;;10510971;28;20056;-59
2021/01/10 22:55:40;;;;;;;13.45;7.00;;;18.40;50.20;;;;;;10508409;28;20044;-60
2021/01/10 23:00:42;;;;;;;9.02;5.50;;;18.40;50.10;;;;;;10508048;28;20051;-59
2021/01/10 23:05:43;;;;;;;8.57;6.00;;;18.30;50.10;;;;;;10511773;28;20058;-58
2021/01/10 23:10:45;;;;;;;8.68;5.22;;;18.30;50.00;;;;;;10510833;28;20044;-59
2021/01/10 23:15:46;;;;;;;8.23;5.00;;;18.30;50.00;;;;;;10508331;28;20060;-59
2021/01/10 23:20:48;;;;;;;8.15;4.50;;;18.30;50.00;;;;;;10511181;28;20648;-53
2021/01/10 23:25:50;;;;;;;9.73;6.05;;;18.30;50.00;;;;;;10511625;28;20047;-60
2021/01/10 23:30:51;;;;;;;9.25;5.97;;;18.30;49.90;;;;;;10506925;28;20060;-58
2021/01/10 23:35:52;;;;;;;7.50;5.13;;;18.30;49.90;;;;;;10504310;28;20165;-58
2021/01/10 23:40:54;;;;;;;6.43;4.38;;;18.30;49.90;;;;;;10509851;28;20129;-59
2021/01/10 23:45:56;;;;;;;7.57;4.93;;;18.30;49.90;;;;;;10513819;28;20495;-59
2021/01/10 23:50:57;;;;;;;9.90;6.33;;;18.30;50.00;;;;;;10506925;28;20055;-59
2021/01/10 23:56:00;;;;;;;7.88;4.50;;;18.30;49.90;;;;;;10507051;28;20046;-59
